Terminal Aerodrome Forecast
Issued by NWS

Home | Current Version | Previous Version | Text Only | Print | Product List | Glossary On
Versions: 1 2 3 4 5 6 7 8 9 10 11 12 13 14 15 16 17 18 19 20
000
FTUS43 KDLH 211100
TAFHYR
TAF
KHYR 211140Z 2112/2212 16006KT 5SM BR OVC010
     FM211600 16008KT 3SM -DZSN BR OVC006
     FM211900 15009KT 2SM -SN BR OVC006
     FM220400 16008KT 4SM -DZSN BR OVC006=

USA.gov is the U.S. government's official web portal to all federal, state and local government web resources and services.